createdAt,value
2018-04-18T00:00:08.048Z,13.10
2018-04-18T00:02:35.533Z,13.10
2018-04-18T00:05:03.796Z,13.20
2018-04-18T00:07:32.023Z,13.20
2018-04-18T00:09:59.471Z,13.20
2018-04-18T00:12:26.933Z,13.20
2018-04-18T00:14:54.400Z,13.30
2018-04-18T00:17:21.856Z,13.30
2018-04-18T00:19:49.321Z,13.30
2018-04-18T00:22:16.796Z,13.30
2018-04-18T00:24:44.267Z,13.20
2018-04-18T00:27:11.733Z,13.20
2018-04-18T00:29:39.971Z,13.30
2018-04-18T00:32:07.428Z,13.20
2018-04-18T00:34:34.895Z,13.20
2018-04-18T00:37:02.361Z,13.20
2018-04-18T00:39:29.839Z,13.20
2018-04-18T00:41:58.089Z,13.10
2018-04-18T00:44:25.548Z,13.10
2018-04-18T00:46:53.012Z,13.00
2018-04-18T00:49:20.515Z,12.90
2018-04-18T00:51:47.969Z,12.70
2018-04-18T00:54:15.444Z,12.60
2018-04-18T00:56:42.903Z,12.60
2018-04-18T00:59:10.370Z,12.50
2018-04-18T01:01:37.835Z,12.50
2018-04-18T01:04:06.074Z,12.50
2018-04-18T01:06:33.540Z,12.50
2018-04-18T01:09:01.012Z,12.60
2018-04-18T01:11:28.473Z,12.70
2018-04-18T01:13:56.533Z,12.60
2018-04-18T01:16:23.996Z,12.60
2018-04-18T01:18:51.468Z,12.60
2018-04-18T01:21:18.937Z,12.50
2018-04-18T01:23:46.398Z,12.50
2018-04-18T01:26:13.848Z,12.40
2018-04-18T01:28:41.334Z,12.40
2018-04-18T01:31:09.580Z,12.40
2018-04-18T01:33:37.943Z,12.30
2018-04-18T01:36:05.404Z,12.30
2018-04-18T01:38:32.860Z,12.30
2018-04-18T01:41:00.335Z,12.30
2018-04-18T01:43:27.788Z,12.20
2018-04-18T01:45:55.302Z,12.20
2018-04-18T01:48:22.759Z,12.10
2018-04-18T01:50:50.208Z,12.10
2018-04-18T01:53:17.697Z,12.10
2018-04-18T01:55:46.043Z,12.00
2018-04-18T01:58:13.518Z,11.90
2018-04-18T02:00:40.983Z,11.90
2018-04-18T02:03:08.457Z,11.80
2018-04-18T02:05:36.460Z,11.70
2018-04-18T02:08:03.933Z,11.70
2018-04-18T02:10:31.388Z,11.60
2018-04-18T02:12:58.894Z,11.50
2018-04-18T02:15:26.353Z,11.50
2018-04-18T02:17:53.823Z,11.40
2018-04-18T02:20:22.049Z,11.30
2018-04-18T02:22:49.505Z,11.30
2018-04-18T02:25:17.561Z,11.30
2018-04-18T02:27:45.030Z,11.20
2018-04-18T02:30:12.488Z,11.10
2018-04-18T02:32:40.025Z,11.10
2018-04-18T02:35:07.497Z,11.10
2018-04-18T02:37:34.958Z,11.00
2018-04-18T02:40:02.505Z,11.00
2018-04-18T02:42:29.894Z,11.10
2018-04-18T02:44:57.365Z,11.00
2018-04-18T02:47:25.543Z,11.00
2018-04-18T02:49:53.012Z,10.90
2018-04-18T02:52:20.472Z,10.90
2018-04-18T02:54:48.702Z,10.80
2018-04-18T02:57:16.151Z,10.80
2018-04-18T02:59:43.628Z,10.80
2018-04-18T03:02:11.077Z,10.80
2018-04-18T03:04:38.562Z,10.80
2018-04-18T03:07:06.112Z,10.80
2018-04-18T03:09:33.626Z,10.70
2018-04-18T03:12:01.123Z,10.70
2018-04-18T03:14:28.588Z,10.70
2018-04-18T03:16:56.062Z,10.70
2018-04-18T03:19:24.280Z,10.60
2018-04-18T03:21:51.779Z,10.50
2018-04-18T03:24:20.109Z,10.50
2018-04-18T03:26:47.562Z,10.50
2018-04-18T03:29:15.041Z,10.40
2018-04-18T03:31:42.519Z,10.40
2018-04-18T03:34:09.977Z,10.40
2018-04-18T03:36:37.549Z,10.40
2018-04-18T03:39:05.099Z,10.40
2018-04-18T03:41:32.565Z,10.50
2018-04-18T03:44:00.038Z,10.50
2018-04-18T03:46:28.269Z,10.50
2018-04-18T03:48:55.768Z,10.50
2018-04-18T03:51:24.016Z,10.50
2018-04-18T03:53:51.481Z,10.50
2018-04-18T03:56:19.034Z,10.50
2018-04-18T03:58:46.501Z,10.40
2018-04-18T04:01:14.053Z,10.50
2018-04-18T04:03:41.521Z,10.50
2018-04-18T04:06:09.804Z,10.50
2018-04-18T04:08:38.028Z,10.50
2018-04-18T04:11:05.516Z,10.50
2018-04-18T04:13:32.971Z,10.40
2018-04-18T04:16:00.428Z,10.40
2018-04-18T04:18:39.817Z,10.40
2018-04-18T04:21:19.188Z,10.40
2018-04-18T04:23:58.500Z,10.40
2018-04-18T04:26:25.990Z,10.40
2018-04-18T04:28:54.224Z,10.40
2018-04-18T04:31:21.679Z,10.40
2018-04-18T04:33:49.159Z,10.40
2018-04-18T04:36:16.648Z,10.40
2018-04-18T04:38:44.885Z,10.40
2018-04-18T04:41:12.358Z,10.40
2018-04-18T04:43:39.826Z,10.40
2018-04-18T04:46:07.304Z,10.40
2018-04-18T04:48:35.561Z,10.40
2018-04-18T04:51:04.871Z,10.40
2018-04-18T04:53:33.100Z,10.40
2018-04-18T04:56:00.571Z,10.40
2018-04-18T04:58:28.049Z,10.40
2018-04-18T05:00:55.507Z,10.40
2018-04-18T05:03:22.981Z,10.50
2018-04-18T05:05:51.215Z,10.50
2018-04-18T05:08:18.677Z,10.40
2018-04-18T05:10:46.148Z,10.50
2018-04-18T05:13:13.617Z,10.50
2018-04-18T05:15:41.093Z,10.50
2018-04-18T05:18:09.336Z,10.60
2018-04-18T05:20:36.802Z,10.50
2018-04-18T05:23:04.355Z,10.60
2018-04-18T05:25:31.814Z,10.60
2018-04-18T05:28:00.784Z,10.70
2018-04-18T05:30:28.261Z,10.70
2018-04-18T05:32:55.734Z,10.70
2018-04-18T05:35:23.974Z,10.80
2018-04-18T05:37:51.551Z,10.80
2018-04-18T05:40:19.118Z,10.90
2018-04-18T05:49:32.504Z,11.00
2018-04-18T05:52:00.724Z,11.20
2018-04-18T05:54:28.197Z,11.10
2018-04-18T05:56:55.675Z,11.20
2018-04-18T05:59:23.168Z,11.30
2018-04-18T06:01:51.407Z,11.50
2018-04-18T06:04:19.650Z,11.60
2018-04-18T06:06:47.104Z,11.60
2018-04-18T06:09:14.605Z,11.60
2018-04-18T06:11:42.065Z,11.70
2018-04-18T06:14:10.289Z,11.90
2018-04-18T06:16:37.760Z,11.90
2018-04-18T06:19:05.236Z,12.20
2018-04-18T06:21:32.787Z,12.70
2018-04-18T06:24:00.260Z,13.40
2018-04-18T06:26:27.716Z,13.90
2018-04-18T06:28:55.215Z,14.30
2018-04-18T06:31:22.725Z,14.60
2018-04-18T06:33:50.197Z,14.80
2018-04-18T06:36:18.458Z,15.40
2018-04-18T06:38:46.027Z,15.40
2018-04-18T06:41:13.484Z,15.60
2018-04-18T06:43:40.957Z,16.20
2018-04-18T06:46:09.191Z,17.40
2018-04-18T06:48:36.644Z,17.40
2018-04-18T06:51:04.727Z,17.90
2018-04-18T06:53:32.193Z,18.00
2018-04-18T06:55:59.668Z,17.80
2018-04-18T06:58:27.889Z,17.70
2018-04-18T07:00:55.359Z,17.70
2018-04-18T07:03:22.866Z,17.60
2018-04-18T07:05:50.304Z,17.30
2018-04-18T07:08:17.801Z,17.10
2018-04-18T07:10:46.125Z,16.50
2018-04-18T07:13:14.401Z,16.20
2018-04-18T07:15:42.644Z,16.00
2018-04-18T07:18:10.099Z,16.00
2018-04-18T07:20:37.579Z,16.00
2018-04-18T07:23:05.728Z,16.00
2018-04-18T07:25:33.200Z,16.10
2018-04-18T07:28:00.668Z,16.00
2018-04-18T07:30:28.136Z,16.10
2018-04-18T07:32:55.619Z,16.10
2018-04-18T07:35:23.849Z,16.10
2018-04-18T07:37:51.307Z,16.10
2018-04-18T07:40:18.784Z,16.10
2018-04-18T07:42:46.245Z,16.10
2018-04-18T07:45:13.696Z,16.20
2018-04-18T07:47:41.169Z,16.30
2018-04-18T07:50:09.423Z,16.30
2018-04-18T07:52:37.612Z,16.30
2018-04-18T07:55:05.095Z,16.50
2018-04-18T07:57:32.575Z,16.60
2018-04-18T08:00:00.036Z,16.70
2018-04-18T08:02:27.516Z,16.80
2018-04-18T08:04:55.092Z,16.80
2018-04-18T08:07:23.345Z,17.00
2018-04-18T08:09:50.935Z,17.00
2018-04-18T08:12:18.388Z,17.10
2018-04-18T08:14:45.852Z,17.30
2018-04-18T08:17:14.096Z,17.60
2018-04-18T08:19:41.552Z,17.60
2018-04-18T08:22:09.021Z,17.70
2018-04-18T08:24:36.484Z,17.70
2018-04-18T08:27:05.457Z,18.00
2018-04-18T08:29:32.932Z,18.00
2018-04-18T08:32:00.389Z,18.10
2018-04-18T08:34:27.853Z,18.20
2018-04-18T08:36:55.401Z,18.40
2018-04-18T08:39:22.959Z,18.40
2018-04-18T08:41:50.525Z,18.40
2018-04-18T08:44:17.985Z,18.60
2018-04-18T08:46:45.467Z,18.60
2018-04-18T08:49:13.705Z,18.90
2018-04-18T08:51:41.189Z,18.90
2018-04-18T08:54:09.416Z,19.00
2018-04-18T08:56:36.896Z,19.00
2018-04-18T08:59:04.364Z,19.10
2018-04-18T09:01:31.831Z,19.10
2018-04-18T09:04:00.056Z,19.40
2018-04-18T09:06:27.530Z,19.50
2018-04-18T09:08:55.000Z,19.70
2018-04-18T09:11:22.465Z,19.80
2018-04-18T09:13:49.932Z,19.90
2018-04-18T09:16:18.156Z,20.00
2018-04-18T09:18:45.620Z,19.90
2018-04-18T09:21:13.092Z,20.10
2018-04-18T09:23:40.553Z,20.20
2018-04-18T09:26:08.034Z,20.30
2018-04-18T09:28:36.273Z,20.50
2018-04-18T09:31:03.736Z,20.50
2018-04-18T09:33:31.210Z,20.60
2018-04-18T09:35:59.482Z,20.70
2018-04-18T09:38:27.049Z,20.60
2018-04-18T09:40:55.284Z,20.80
2018-04-18T09:43:22.775Z,20.80
2018-04-18T09:45:50.237Z,21.00
2018-04-18T09:48:17.713Z,21.20
2018-04-18T09:50:45.936Z,21.50
2018-04-18T09:53:13.404Z,21.50
2018-04-18T09:55:40.876Z,21.50
2018-04-18T09:58:08.345Z,21.60
2018-04-18T10:00:41.556Z,21.70
2018-04-18T10:03:15.000Z,22.00
2018-04-18T10:05:42.485Z,22.00
2018-04-18T10:08:09.994Z,22.20
2018-04-18T10:10:37.413Z,22.30
2018-04-18T10:13:05.653Z,22.40
2018-04-18T10:15:33.117Z,22.40
2018-04-18T10:18:00.585Z,22.50
2018-04-18T10:20:28.069Z,22.50
2018-04-18T10:22:56.324Z,22.70
2018-04-18T10:25:23.801Z,22.70
2018-04-18T10:27:52.019Z,22.80
2018-04-18T10:30:19.489Z,22.80
2018-04-18T10:32:46.957Z,22.90
2018-04-18T10:35:14.431Z,22.90
2018-04-18T10:37:42.664Z,23.10
2018-04-18T10:40:10.224Z,23.00
2018-04-18T10:42:37.696Z,23.10
2018-04-18T10:45:05.157Z,23.10
2018-04-18T10:47:32.629Z,23.20
2018-04-18T10:50:00.873Z,23.60
2018-04-18T10:52:28.348Z,23.50
2018-04-18T10:54:56.584Z,23.60
2018-04-18T10:57:24.052Z,23.50
2018-04-18T10:59:51.576Z,23.50
2018-04-18T11:02:19.037Z,23.50
2018-04-18T11:04:46.510Z,23.50
2018-04-18T11:07:13.964Z,23.70
2018-04-18T11:09:41.457Z,23.90
2018-04-18T11:12:08.923Z,24.10
2018-04-18T11:14:37.898Z,24.10
2018-04-18T11:17:05.479Z,24.10
2018-04-18T11:19:32.932Z,24.30
2018-04-18T11:22:01.922Z,24.20
2018-04-18T11:24:29.381Z,24.20
2018-04-18T11:26:57.327Z,24.20
2018-04-18T11:29:24.820Z,24.40
2018-04-18T11:31:52.324Z,24.40
2018-04-18T11:34:19.801Z,24.20
2018-04-18T11:36:47.257Z,24.40
2018-04-18T11:39:14.732Z,24.20
2018-04-18T11:41:42.189Z,24.30
2018-04-18T11:44:09.657Z,24.40
2018-04-18T11:46:37.127Z,24.60
2018-04-18T11:49:05.358Z,24.70
2018-04-18T11:51:32.941Z,24.70
2018-04-18T11:54:00.402Z,24.90
2018-04-18T11:56:27.855Z,25.10
2018-04-18T11:58:55.405Z,25.00
2018-04-18T12:01:22.860Z,25.10
2018-04-18T12:03:51.101Z,25.10
2018-04-18T12:06:18.569Z,25.10
2018-04-18T12:08:46.052Z,25.20
2018-04-18T12:11:13.520Z,25.40
2018-04-18T12:13:40.973Z,25.50
2018-04-18T12:16:08.464Z,25.50
2018-04-18T12:18:36.509Z,25.50
2018-04-18T12:21:04.895Z,25.60
2018-04-18T12:23:33.136Z,25.60
2018-04-18T12:26:00.596Z,25.60
2018-04-18T12:28:28.166Z,25.70
2018-04-18T12:30:55.661Z,25.70
2018-04-18T12:33:23.118Z,25.70
2018-04-18T12:35:50.599Z,25.70
2018-04-18T12:38:18.056Z,25.90
2018-04-18T12:40:45.523Z,25.90
2018-04-18T12:43:12.997Z,25.90
2018-04-18T12:45:40.448Z,25.90
2018-04-18T12:48:07.908Z,26.00
2018-04-18T12:50:35.373Z,26.00
2018-04-18T12:53:02.834Z,26.10
2018-04-18T12:55:30.289Z,26.30
2018-04-18T12:57:57.760Z,26.20
2018-04-18T13:00:26.008Z,25.60
2018-04-18T13:02:53.476Z,25.60
2018-04-18T13:05:20.935Z,25.80
2018-04-18T13:07:48.409Z,26.00
2018-04-18T13:10:16.635Z,26.30
2018-04-18T13:12:44.182Z,26.30
2018-04-18T13:15:11.635Z,26.40
2018-04-18T13:17:39.096Z,26.40
2018-04-18T13:20:06.578Z,26.40
2018-04-18T13:22:34.055Z,26.60
2018-04-18T13:25:01.523Z,26.60
2018-04-18T13:27:29.760Z,26.60
2018-04-18T13:29:57.285Z,26.60
2018-04-18T13:32:25.208Z,26.80
2018-04-18T13:34:52.702Z,26.80
2018-04-18T13:37:20.170Z,26.60
2018-04-18T13:39:47.636Z,26.50
2018-04-18T13:42:15.413Z,26.60
2018-04-18T13:44:42.869Z,26.50
2018-04-18T13:47:10.416Z,26.50
2018-04-18T13:49:37.942Z,26.60
2018-04-18T13:52:06.206Z,26.70
2018-04-18T13:54:34.437Z,26.60
2018-04-18T13:57:02.056Z,26.60
2018-04-18T13:59:30.277Z,26.80
2018-04-18T14:01:57.740Z,26.80
2018-04-18T14:04:25.221Z,26.80
2018-04-18T14:06:52.727Z,26.90
2018-04-18T14:09:20.183Z,26.80
2018-04-18T14:11:47.683Z,26.70
2018-04-18T14:14:15.241Z,26.60
2018-04-18T14:16:42.724Z,26.70
2018-04-18T14:19:10.282Z,26.70
2018-04-18T14:21:38.520Z,26.90
2018-04-18T14:24:05.976Z,26.90
2018-04-18T14:26:33.458Z,26.90
2018-04-18T14:29:00.913Z,27.00
2018-04-18T14:31:28.400Z,27.10
2018-04-18T14:33:56.804Z,27.20
2018-04-18T14:36:24.361Z,27.30
2018-04-18T14:38:51.815Z,27.10
2018-04-18T14:41:19.273Z,27.00
2018-04-18T14:43:46.761Z,26.90
2018-04-18T14:46:14.303Z,26.90
2018-04-18T14:48:41.765Z,26.80
2018-04-18T14:51:09.237Z,27.00
2018-04-18T14:53:36.703Z,26.90
2018-04-18T14:56:04.188Z,26.80
2018-04-18T14:58:32.417Z,26.90
2018-04-18T15:00:59.879Z,26.90
2018-04-18T15:03:27.352Z,26.80
2018-04-18T15:05:54.803Z,26.90
2018-04-18T15:08:22.260Z,26.80
2018-04-18T15:10:49.803Z,27.00
2018-04-18T15:13:17.228Z,27.10
2018-04-18T15:15:44.693Z,27.00
2018-04-18T15:18:12.170Z,27.10
2018-04-18T15:20:39.632Z,27.00
2018-04-18T15:23:07.113Z,26.80
2018-04-18T15:25:35.341Z,27.10
2018-04-18T15:28:02.818Z,27.10
2018-04-18T15:30:30.309Z,27.20
2018-04-18T15:32:58.545Z,27.10
2018-04-18T15:35:26.009Z,27.10
2018-04-18T15:37:53.481Z,26.80
2018-04-18T15:40:20.935Z,26.80
2018-04-18T15:42:48.415Z,26.80
2018-04-18T15:45:16.648Z,27.00
2018-04-18T15:47:44.109Z,27.00
2018-04-18T15:50:11.572Z,27.10
2018-04-18T15:52:39.037Z,27.00
2018-04-18T15:55:06.515Z,27.00
2018-04-18T15:57:34.752Z,26.90
2018-04-18T16:00:02.216Z,26.90
2018-04-18T16:02:29.697Z,27.00
2018-04-18T16:04:58.019Z,26.80
2018-04-18T16:07:25.513Z,26.80
2018-04-18T16:09:52.985Z,26.90
2018-04-18T16:12:20.456Z,26.80
2018-04-18T16:14:48.703Z,26.90
2018-04-18T16:17:16.182Z,26.90
2018-04-18T16:19:43.682Z,26.90
2018-04-18T16:22:11.237Z,27.00
2018-04-18T16:24:38.696Z,27.00
2018-04-18T16:27:06.207Z,27.00
2018-04-18T16:29:43.518Z,27.10
2018-04-18T16:32:11.000Z,26.90
2018-04-18T16:34:38.574Z,27.00
2018-04-18T16:37:06.476Z,27.00
2018-04-18T16:39:33.944Z,26.90
2018-04-18T16:42:02.188Z,26.70
2018-04-18T16:44:29.677Z,26.70
2018-04-18T16:46:57.901Z,26.70
2018-04-18T16:49:25.388Z,26.70
2018-04-18T16:51:52.852Z,26.70
2018-04-18T16:54:20.314Z,26.80
2018-04-18T16:56:47.805Z,26.70
2018-04-18T16:59:15.282Z,26.50
2018-04-18T17:01:42.866Z,26.40
2018-04-18T17:04:10.336Z,26.30
2018-04-18T17:06:37.873Z,26.10
2018-04-18T17:09:06.039Z,25.90
2018-04-18T17:11:33.805Z,25.80
2018-04-18T17:14:01.272Z,25.70
2018-04-18T17:16:28.758Z,25.60
2018-04-18T17:18:56.989Z,25.30
2018-04-18T17:21:24.472Z,25.30
2018-04-18T17:23:51.928Z,25.30
2018-04-18T17:26:19.400Z,25.30
2018-04-18T17:28:47.635Z,25.10
2018-04-18T17:31:15.113Z,25.10
2018-04-18T17:33:42.590Z,25.10
2018-04-18T17:36:10.873Z,24.70
2018-04-18T17:38:39.592Z,24.50
2018-04-18T17:41:07.049Z,24.50
2018-04-18T17:43:34.552Z,24.60
2018-04-18T17:46:02.097Z,24.30
2018-04-18T17:48:29.576Z,24.30
2018-04-18T17:50:57.105Z,24.30
2018-04-18T17:53:24.593Z,24.10
2018-04-18T17:55:52.144Z,24.10
2018-04-18T17:58:19.623Z,24.00
2018-04-18T18:00:47.858Z,23.70
2018-04-18T18:03:15.317Z,23.70
2018-04-18T18:05:42.824Z,23.70
2018-04-18T18:08:10.296Z,23.60
2018-04-18T18:10:37.828Z,23.50
2018-04-18T18:13:06.058Z,23.20
2018-04-18T18:15:33.523Z,23.20
2018-04-18T18:18:01.043Z,23.10
2018-04-18T18:20:28.518Z,23.10
2018-04-18T18:22:56.003Z,23.00
2018-04-18T18:25:23.532Z,22.90
2018-04-18T18:27:50.989Z,22.80
2018-04-18T18:30:18.472Z,22.70
2018-04-18T18:32:45.974Z,22.50
2018-04-18T18:35:13.440Z,22.40
2018-04-18T18:37:40.918Z,22.30
2018-04-18T18:40:08.376Z,22.30
2018-04-18T18:42:35.876Z,22.20
2018-04-18T18:45:03.389Z,22.00
2018-04-18T18:47:30.852Z,21.90
2018-04-18T18:49:58.329Z,21.80
2018-04-18T18:52:25.785Z,21.70
2018-04-18T18:54:53.274Z,21.50
2018-04-18T18:57:21.520Z,21.00
2018-04-18T18:59:49.011Z,21.00
2018-04-18T19:02:17.238Z,20.70
2018-04-18T19:04:44.701Z,20.70
2018-04-18T19:07:12.192Z,20.50
2018-04-18T19:09:40.436Z,20.20
2018-04-18T19:12:07.921Z,20.20
2018-04-18T19:14:35.379Z,20.10
2018-04-18T19:17:04.144Z,19.80
2018-04-18T19:19:31.624Z,19.80
2018-04-18T19:21:59.910Z,19.60
2018-04-18T19:24:28.165Z,19.50
2018-04-18T19:26:55.669Z,19.50
2018-04-18T19:29:23.144Z,19.30
2018-04-18T19:31:50.646Z,19.30
2018-04-18T19:34:18.905Z,19.10
2018-04-18T19:36:46.364Z,19.10
2018-04-18T19:39:13.860Z,19.00
2018-04-18T19:41:41.343Z,19.00
2018-04-18T19:44:08.852Z,19.00
2018-04-18T19:46:37.100Z,18.80
2018-04-18T19:49:04.590Z,18.70
2018-04-18T19:51:32.836Z,18.60
2018-04-18T19:54:01.056Z,18.60
2018-04-18T19:56:28.519Z,18.60
2018-04-18T19:58:55.991Z,18.50
2018-04-18T20:01:23.479Z,18.50
2018-04-18T20:03:50.987Z,18.30
2018-04-18T20:06:18.447Z,18.30
2018-04-18T20:08:46.564Z,18.20
2018-04-18T20:11:14.084Z,18.10
2018-04-18T20:13:41.549Z,18.10
2018-04-18T20:16:09.020Z,17.90
2018-04-18T20:18:37.104Z,17.90
2018-04-18T20:21:04.595Z,17.90
2018-04-18T20:23:32.854Z,17.80
2018-04-18T20:26:00.331Z,17.80
2018-04-18T20:28:28.593Z,17.70
2018-04-18T20:30:56.148Z,17.60
2018-04-18T20:33:23.652Z,17.60
2018-04-18T20:35:51.172Z,17.50
2018-04-18T20:38:19.376Z,17.50
2018-04-18T20:40:46.888Z,17.40
2018-04-18T20:43:14.358Z,17.30
2018-04-18T20:45:41.856Z,17.20
2018-04-18T20:48:09.317Z,17.20
2018-04-18T20:50:37.505Z,17.20
2018-04-18T20:53:04.988Z,17.10
2018-04-18T20:55:32.524Z,17.10
2018-04-18T20:57:59.992Z,17.00
2018-04-18T21:00:27.471Z,17.00
2018-04-18T21:02:54.963Z,17.00
2018-04-18T21:05:22.460Z,16.90
2018-04-18T21:07:49.953Z,16.80
2018-04-18T21:10:18.205Z,16.80
2018-04-18T21:12:45.669Z,16.80
2018-04-18T21:15:13.948Z,16.70
2018-04-18T21:17:41.416Z,16.70
2018-04-18T21:20:09.656Z,16.60
2018-04-18T21:22:37.145Z,16.60
2018-04-18T21:25:05.384Z,16.50
2018-04-18T21:27:32.841Z,16.50
2018-04-18T21:30:00.327Z,16.40
2018-04-18T21:32:27.788Z,16.40
2018-04-18T21:34:55.256Z,16.40
2018-04-18T21:37:23.492Z,16.30
2018-04-18T21:39:50.968Z,16.30
2018-04-18T21:42:18.445Z,16.30
2018-04-18T21:44:46.804Z,16.20
2018-04-18T21:47:14.274Z,16.20
2018-04-18T21:49:42.520Z,16.10
2018-04-18T21:52:10.003Z,16.00
2018-04-18T21:54:37.495Z,16.00
2018-04-18T21:57:04.997Z,16.00
2018-04-18T21:59:32.456Z,16.00
2018-04-18T22:01:59.920Z,16.00
2018-04-18T22:04:27.392Z,15.90
2018-04-18T22:06:55.641Z,15.90
2018-04-18T22:09:23.121Z,15.90
2018-04-18T22:11:50.596Z,15.90
2018-04-18T22:14:18.114Z,15.80
2018-04-18T22:16:45.614Z,15.80
2018-04-18T22:19:13.057Z,15.80
2018-04-18T22:21:41.290Z,15.80
2018-04-18T22:24:08.769Z,15.70
2018-04-18T22:26:36.240Z,15.80
2018-04-18T22:29:05.116Z,15.80
2018-04-18T22:31:33.503Z,15.80
2018-04-18T22:34:00.972Z,15.80
2018-04-18T22:36:29.279Z,15.80
2018-04-18T22:38:56.769Z,15.80
2018-04-18T22:41:24.256Z,15.80
2018-04-18T22:43:52.480Z,15.70
2018-04-18T22:46:19.987Z,15.70
2018-04-18T22:48:48.357Z,15.70
2018-04-18T22:51:15.855Z,15.70
2018-04-18T22:53:43.350Z,15.70
2018-04-18T22:56:10.807Z,15.60
2018-04-18T22:58:39.058Z,15.60
2018-04-18T23:01:06.518Z,15.60
2018-04-18T23:03:34.015Z,15.60
2018-04-18T23:06:01.504Z,15.60
2018-04-18T23:08:29.019Z,15.60
2018-04-18T23:10:56.992Z,15.60
2018-04-18T23:13:25.496Z,15.50
2018-04-18T23:15:53.754Z,15.40
2018-04-18T23:18:21.245Z,15.40
2018-04-18T23:20:48.732Z,15.50
2018-04-18T23:23:16.212Z,15.40
2018-04-18T23:25:43.704Z,15.50
2018-04-18T23:28:11.956Z,15.50
2018-04-18T23:30:39.421Z,15.40
2018-04-18T23:33:06.897Z,15.40
2018-04-18T23:35:35.145Z,15.30
2018-04-18T23:38:02.632Z,15.20
2018-04-18T23:40:30.881Z,15.10
2018-04-18T23:42:58.364Z,15.10
2018-04-18T23:45:26.615Z,15.00
2018-04-18T23:47:54.097Z,15.00
2018-04-18T23:50:22.353Z,15.00
2018-04-18T23:52:49.826Z,14.90
2018-04-18T23:55:18.074Z,14.80
2018-04-18T23:57:45.560Z,14.80
